Time;durP1;ratioP1;P1;durP2;ratioP2;P2;SDS_P1;SDS_P2;PMS_P1;PMS_P2;Temp;Humidity;BMP_temperature;BMP_pressure;BME280_temperature;BME280_humidity;BME280_pressure;Samples;Min_cycle;Max_cycle;Signal;HPM_P1;HPM_P2
2022/03/17 00:02:09;;;;;;;28.53;16.37;;;6.90;99.90;;;;;;5097362;28;20492;-64
2022/03/17 00:04:35;;;;;;;21.73;13.60;;;6.80;99.90;;;;;;5097331;28;20178;-64
2022/03/17 00:07:01;;;;;;;25.17;15.00;;;6.90;99.90;;;;;;5114657;28;20632;-63
2022/03/17 00:09:27;;;;;;;25.20;14.73;;;6.80;99.90;;;;;;5114889;28;20176;-64
2022/03/17 00:11:53;;;;;;;27.53;14.67;;;6.90;99.90;;;;;;5115829;28;20242;-65
2022/03/17 00:14:19;;;;;;;23.23;14.50;;;6.90;99.90;;;;;;5114786;28;20163;-64
2022/03/17 00:16:45;;;;;;;22.60;14.03;;;6.90;99.90;;;;;;5115081;28;20151;-65
2022/03/17 00:19:11;;;;;;;24.70;14.73;;;6.80;99.90;;;;;;5096578;28;20660;-65
2022/03/17 00:21:37;;;;;;;23.53;14.47;;;6.80;99.90;;;;;;5115086;28;20183;-64
2022/03/17 00:24:06;;;;;;;26.53;14.27;;;6.70;99.90;;;;;;5114607;28;20241;-64
2022/03/17 00:26:33;;;;;;;23.17;14.03;;;6.70;99.90;;;;;;5114685;28;20608;-63
2022/03/17 00:28:58;;;;;;;23.57;14.13;;;6.50;99.90;;;;;;5114221;28;20251;-65
2022/03/17 00:31:24;;;;;;;28.70;14.23;;;6.50;99.90;;;;;;5115003;28;20194;-64
2022/03/17 00:33:49;;;;;;;26.23;14.23;;;6.40;99.90;;;;;;5115569;28;20172;-65
2022/03/17 00:36:15;;;;;;;24.73;12.33;;;6.20;99.90;;;;;;5118031;28;20201;-64
2022/03/17 00:38:41;;;;;;;25.43;14.17;;;6.20;99.90;;;;;;5078849;28;20303;-64
2022/03/17 00:41:06;;;;;;;23.13;13.67;;;6.10;99.90;;;;;;5073469;28;20569;-65
2022/03/17 00:43:34;;;;;;;24.10;13.93;;;6.20;99.90;;;;;;5073638;28;20162;-64
2022/03/17 00:45:59;;;;;;;23.87;14.10;;;6.20;99.90;;;;;;5073989;28;20531;-65
2022/03/17 00:48:25;;;;;;;25.07;13.97;;;6.00;99.90;;;;;;5073365;28;20210;-64
2022/03/17 00:50:51;;;;;;;23.33;14.10;;;6.00;99.90;;;;;;5073354;28;20167;-65
2022/03/17 00:53:16;;;;;;;24.20;14.03;;;6.00;99.90;;;;;;5074219;28;20243;-64
2022/03/17 00:55:42;;;;;;;22.17;14.00;;;6.00;99.90;;;;;;5073622;28;20243;-65
2022/03/17 00:58:08;;;;;;;25.23;14.53;;;5.90;99.90;;;;;;5073996;28;20165;-65
2022/03/17 01:00:34;;;;;;;22.30;13.70;;;5.90;99.90;;;;;;5073629;28;20191;-63
2022/03/17 01:03:01;;;;;;;23.23;13.50;;;5.90;99.90;;;;;;5073560;28;20167;-63
2022/03/17 01:05:26;;;;;;;28.73;14.90;;;5.90;99.90;;;;;;5073465;28;20189;-63
2022/03/17 01:07:53;;;;;;;26.00;14.27;;;5.90;99.90;;;;;;5073507;28;20173;-64
2022/03/17 01:10:19;;;;;;;24.37;13.77;;;5.80;99.90;;;;;;5073532;28;20164;-64
2022/03/17 01:12:46;;;;;;;27.57;16.60;;;5.70;99.90;;;;;;5073348;28;20160;-65
2022/03/17 01:15:13;;;;;;;23.97;14.33;;;5.70;99.90;;;;;;5088857;28;20169;-64
2022/03/17 01:17:39;;;;;;;30.07;15.27;;;5.80;99.90;;;;;;5073097;28;20159;-64
2022/03/17 01:20:06;;;;;;;26.00;15.17;;;5.70;99.90;;;;;;5088859;28;20585;-64
2022/03/17 01:22:32;;;;;;;27.07;13.10;;;5.70;99.90;;;;;;5055440;28;20184;-64
2022/03/17 01:24:58;;;;;;;22.43;13.60;;;5.80;99.90;;;;;;5073118;28;20206;-64
2022/03/17 01:27:25;;;;;;;25.10;14.77;;;5.70;99.90;;;;;;5073201;28;20230;-64
2022/03/17 01:29:51;;;;;;;25.30;13.90;;;5.60;99.90;;;;;;5073122;28;20156;-65
2022/03/17 01:32:17;;;;;;;30.80;15.83;;;5.70;99.90;;;;;;5072853;28;20171;-64
2022/03/17 01:34:43;;;;;;;27.00;14.43;;;5.70;99.90;;;;;;5073311;28;20160;-66
2022/03/17 01:37:09;;;;;;;28.20;13.43;;;5.70;99.90;;;;;;5073768;28;20214;-64
2022/03/17 01:39:35;;;;;;;27.50;15.43;;;5.80;99.90;;;;;;5072948;28;20411;-65
2022/03/17 01:42:08;;;;;;;25.90;14.63;;;5.80;99.90;;;;;;5077357;28;20160;-65
2022/03/17 01:44:34;;;;;;;25.80;14.73;;;5.80;99.90;;;;;;5059145;28;20215;-64
2022/03/17 01:49:45;;;;;;;28.50;18.00;;;5.80;99.90;;;;;;5077135;28;20565;-65
2022/03/17 01:52:12;;;;;;;29.20;16.03;;;5.80;99.90;;;;;;5077108;28;20156;-64
2022/03/17 01:54:38;;;;;;;31.93;15.10;;;5.80;99.90;;;;;;5077238;28;20170;-65
2022/03/17 01:57:06;;;;;;;28.70;14.00;;;5.90;99.90;;;;;;5077232;28;20197;-64
2022/03/17 01:59:34;;;;;;;22.67;13.50;;;5.90;99.90;;;;;;5077390;28;20191;-64
2022/03/17 02:02:02;;;;;;;24.03;14.63;;;6.00;99.90;;;;;;5081585;28;20612;-65
2022/03/17 02:04:28;;;;;;;24.70;14.33;;;5.90;99.90;;;;;;5077846;28;20509;-64
2022/03/17 02:06:55;;;;;;;27.63;13.63;;;5.90;99.90;;;;;;5092921;28;20185;-63
2022/03/17 02:09:20;;;;;;;26.00;13.67;;;5.80;99.90;;;;;;5076749;28;20212;-64
2022/03/17 02:14:34;;;;;;;25.47;14.70;;;5.60;99.90;;;;;;5076577;28;20171;-64
2022/03/17 02:17:00;;;;;;;25.77;13.77;;;5.50;99.90;;;;;;5076841;28;20205;-65
2022/03/17 02:19:26;;;;;;;24.37;14.27;;;5.40;99.90;;;;;;5076457;28;20164;-64
2022/03/17 02:21:52;;;;;;;23.60;13.20;;;5.40;99.90;;;;;;5076436;28;20188;-64
2022/03/17 02:27:03;;;;;;;29.63;14.40;;;5.50;99.90;;;;;;5076221;28;20163;-64
2022/03/17 02:29:30;;;;;;;28.00;14.80;;;5.50;99.90;;;;;;5076322;28;20174;-65
2022/03/17 02:31:57;;;;;;;24.87;14.80;;;5.40;99.90;;;;;;5076632;28;20284;-64
2022/03/17 02:34:22;;;;;;;23.83;13.73;;;5.40;99.90;;;;;;5081193;28;20194;-66
2022/03/17 02:36:50;;;;;;;31.63;18.30;;;5.20;99.90;;;;;;5096530;28;20184;-64
2022/03/17 02:39:21;;;;;;;28.60;17.83;;;5.30;99.90;;;;;;5096193;28;20159;-65
2022/03/17 02:41:47;;;;;;;30.60;17.67;;;5.30;99.90;;;;;;5096709;28;20191;-64
2022/03/17 02:44:13;;;;;;;28.90;18.10;;;5.20;99.90;;;;;;5078587;28;20179;-64
2022/03/17 02:46:39;;;;;;;27.20;15.13;;;5.20;99.90;;;;;;5096031;28;20162;-64
2022/03/17 02:49:05;;;;;;;30.83;18.60;;;5.20;99.90;;;;;;5095577;28;20164;-64
2022/03/17 02:51:31;;;;;;;23.27;13.93;;;5.20;99.90;;;;;;5094706;28;20163;-64
2022/03/17 02:53:57;;;;;;;24.67;14.67;;;5.10;99.90;;;;;;5096134;28;20168;-65
2022/03/17 02:56:23;;;;;;;22.20;14.73;;;5.20;99.90;;;;;;5096001;28;20175;-67
2022/03/17 02:58:48;;;;;;;25.63;14.60;;;5.20;99.90;;;;;;5095964;28;20187;-64
2022/03/17 03:01:14;;;;;;;26.93;15.00;;;5.30;99.90;;;;;;5095694;28;20656;-65
2022/03/17 03:03:40;;;;;;;25.97;14.53;;;5.30;99.90;;;;;;5095759;28;20175;-65
2022/03/17 03:06:06;;;;;;;29.93;18.50;;;5.40;99.90;;;;;;5078293;28;20178;-65
2022/03/17 03:08:33;;;;;;;28.67;15.77;;;5.40;99.90;;;;;;5095666;28;20184;-64
2022/03/17 03:10:59;;;;;;;35.10;19.77;;;5.40;99.90;;;;;;5096021;28;20184;-64
2022/03/17 03:13:24;;;;;;;31.30;19.50;;;5.40;99.90;;;;;;5095826;28;20257;-65
2022/03/17 03:15:50;;;;;;;32.67;18.97;;;5.40;99.90;;;;;;5090403;28;20240;-65
2022/03/17 03:18:17;;;;;;;34.40;19.73;;;5.40;99.90;;;;;;5095364;28;20164;-63
2022/03/17 03:20:42;;;;;;;23.93;14.00;;;5.40;99.90;;;;;;5095167;28;20188;-66
2022/03/17 03:23:08;;;;;;;28.60;14.03;;;5.40;99.90;;;;;;5095782;28;20175;-65
2022/03/17 03:25:34;;;;;;;33.97;19.60;;;5.50;99.90;;;;;;5096120;28;20625;-64
2022/03/17 03:28:08;;;;;;;35.00;20.00;;;5.30;99.90;;;;;;5098725;28;20181;-65
2022/03/17 03:30:34;;;;;;;30.87;18.50;;;5.30;99.90;;;;;;5095855;28;20171;-64
2022/03/17 03:32:59;;;;;;;32.70;20.20;;;5.30;99.90;;;;;;5094905;28;20169;-65
2022/03/17 03:38:09;;;;;;;30.37;15.17;;;5.30;99.90;;;;;;5094970;28;20179;-64
2022/03/17 03:40:34;;;;;;;28.17;14.90;;;5.20;99.90;;;;;;5076150;28;20234;-64
2022/03/17 03:43:00;;;;;;;23.60;14.17;;;5.40;99.90;;;;;;5094676;28;20207;-63
2022/03/17 03:45:26;;;;;;;23.87;13.87;;;5.30;99.90;;;;;;5094721;28;20277;-64
2022/03/17 03:47:52;;;;;;;29.73;15.47;;;5.40;99.90;;;;;;5076898;28;20186;-67
2022/03/17 03:50:18;;;;;;;29.47;15.83;;;5.50;99.90;;;;;;5095073;28;20213;-65
2022/03/17 03:52:43;;;;;;;33.93;19.43;;;5.40;99.90;;;;;;5095041;28;20217;-64
2022/03/17 03:55:10;;;;;;;33.40;17.57;;;5.70;99.90;;;;;;5094530;28;20165;-64
2022/03/17 03:57:36;;;;;;;26.17;15.60;;;5.60;99.90;;;;;;5094479;28;20540;-64
2022/03/17 04:00:06;;;;;;;25.87;14.43;;;5.50;99.90;;;;;;5095045;28;20275;-64
2022/03/17 04:02:32;;;;;;;27.07;15.50;;;5.60;99.90;;;;;;5095790;28;20171;-63
2022/03/17 04:04:58;;;;;;;26.50;14.03;;;5.50;99.90;;;;;;5095738;28;20222;-64
2022/03/17 04:07:23;;;;;;;25.00;14.23;;;5.40;99.90;;;;;;5094232;28;20163;-64
2022/03/17 04:09:49;;;;;;;26.13;15.30;;;5.50;99.90;;;;;;5094461;28;20684;-64
2022/03/17 04:12:15;;;;;;;24.40;14.80;;;5.60;99.90;;;;;;5094083;28;20598;-65
2022/03/17 04:14:41;;;;;;;23.50;14.30;;;5.60;99.90;;;;;;5094641;28;20155;-64
2022/03/17 04:17:07;;;;;;;29.50;15.23;;;5.70;99.90;;;;;;5094882;28;20220;-65
2022/03/17 04:19:32;;;;;;;31.07;18.13;;;5.80;99.90;;;;;;5094255;28;20196;-64
2022/03/17 04:21:58;;;;;;;24.00;14.70;;;5.70;99.90;;;;;;5094124;28;20174;-65
2022/03/17 04:24:24;;;;;;;36.63;15.23;;;5.80;99.90;;;;;;5094406;28;20162;-65
2022/03/17 04:26:50;;;;;;;27.83;15.80;;;5.70;99.90;;;;;;5094596;28;20231;-65
2022/03/17 04:29:16;;;;;;;32.10;18.80;;;5.80;99.90;;;;;;5095354;28;20208;-64
2022/03/17 04:31:44;;;;;;;27.73;16.27;;;5.70;99.90;;;;;;5098291;28;20174;-65
2022/03/17 04:34:10;;;;;;;30.87;15.83;;;5.80;99.90;;;;;;5081748;28;20254;-66
2022/03/17 04:36:37;;;;;;;29.67;16.50;;;5.80;99.90;;;;;;5098188;28;20213;-66
2022/03/17 04:39:04;;;;;;;32.87;17.00;;;5.80;99.90;;;;;;5080220;28;20211;-64
2022/03/17 04:41:30;;;;;;;28.87;16.73;;;5.90;99.90;;;;;;5098390;28;20334;-64
2022/03/17 04:43:58;;;;;;;32.63;16.30;;;5.90;99.90;;;;;;5097864;28;20187;-65
2022/03/17 04:46:23;;;;;;;24.40;15.97;;;5.80;99.90;;;;;;5095666;28;20166;-66
2022/03/17 04:48:49;;;;;;;25.33;15.33;;;5.90;99.90;;;;;;5094667;28;20170;-65
2022/03/17 04:51:15;;;;;;;26.87;16.07;;;5.90;99.90;;;;;;5093879;28;20163;-64
2022/03/17 04:53:41;;;;;;;30.20;16.37;;;5.80;99.90;;;;;;5094049;28;20170;-64
2022/03/17 04:56:09;;;;;;;27.67;16.83;;;5.90;99.90;;;;;;5093154;28;20164;-64
2022/03/17 04:58:37;;;;;;;33.47;17.70;;;5.90;99.90;;;;;;5093105;28;20556;-64
2022/03/17 05:01:04;;;;;;;29.33;16.80;;;6.00;99.90;;;;;;5093794;28;20190;-64
2022/03/17 05:03:30;;;;;;;30.00;17.13;;;5.90;99.90;;;;;;5093284;28;20246;-64
2022/03/17 05:05:56;;;;;;;31.03;17.13;;;5.90;99.90;;;;;;5093732;28;20168;-64
2022/03/17 05:08:22;;;;;;;28.73;17.07;;;5.90;99.90;;;;;;5093482;28;20270;-65
2022/03/17 05:10:50;;;;;;;26.13;17.37;;;5.90;99.90;;;;;;5093275;28;20166;-64
2022/03/17 05:13:18;;;;;;;31.40;18.63;;;5.90;99.90;;;;;;5075440;28;20176;-64
2022/03/17 05:15:43;;;;;;;29.83;16.53;;;5.90;99.90;;;;;;5093043;28;20164;-65
2022/03/17 05:18:09;;;;;;;34.03;18.13;;;5.90;99.90;;;;;;5092906;28;20222;-64
2022/03/17 05:20:36;;;;;;;28.03;16.67;;;5.90;99.90;;;;;;5075145;28;20215;-64
2022/03/17 05:23:07;;;;;;;32.40;17.17;;;5.90;99.90;;;;;;5092860;28;20598;-64
2022/03/17 05:25:32;;;;;;;27.60;16.07;;;5.90;99.90;;;;;;5075589;28;20428;-63
2022/03/17 05:27:59;;;;;;;30.80;18.17;;;5.90;99.90;;;;;;5093298;28;20165;-64
2022/03/17 05:30:26;;;;;;;31.37;18.77;;;5.90;99.90;;;;;;5092675;28;20172;-64
2022/03/17 05:32:51;;;;;;;55.37;25.67;;;5.90;99.90;;;;;;5093020;28;20162;-66
2022/03/17 05:35:17;;;;;;;55.43;31.33;;;6.00;99.90;;;;;;5093571;28;20169;-65
2022/03/17 05:37:43;;;;;;;55.83;29.97;;;6.10;99.90;;;;;;5093517;28;20589;-65
2022/03/17 05:40:15;;;;;;;46.90;28.10;;;6.00;99.90;;;;;;5092784;28;20235;-65
2022/03/17 05:42:41;;;;;;;51.77;27.87;;;6.10;99.90;;;;;;5092892;28;20167;-64
2022/03/17 05:45:08;;;;;;;43.63;24.63;;;6.10;99.90;;;;;;5093590;28;20186;-65
2022/03/17 05:47:38;;;;;;;42.07;23.93;;;6.10;99.90;;;;;;5093044;28;20194;-64
2022/03/17 05:50:05;;;;;;;32.93;19.63;;;6.20;99.90;;;;;;5092616;28;20250;-64
2022/03/17 05:52:31;;;;;;;40.13;21.17;;;6.40;99.90;;;;;;5092560;28;20505;-64
2022/03/17 05:54:57;;;;;;;36.83;20.60;;;6.50;99.90;;;;;;5092543;28;20162;-65
2022/03/17 05:57:23;;;;;;;33.40;18.97;;;6.70;99.90;;;;;;5092846;28;20264;-65
2022/03/17 05:59:49;;;;;;;37.57;21.40;;;6.80;99.90;;;;;;5092850;28;20183;-64
2022/03/17 06:02:14;;;;;;;36.37;20.87;;;6.80;99.90;;;;;;5092789;28;20166;-64
2022/03/17 06:04:41;;;;;;;42.33;22.73;;;7.00;99.90;;;;;;5092275;28;20175;-65
2022/03/17 06:07:07;;;;;;;37.93;20.30;;;7.10;99.90;;;;;;5093394;28;20203;-65
2022/03/17 06:09:33;;;;;;;34.30;20.10;;;7.10;99.90;;;;;;5093090;28;20465;-64
2022/03/17 06:11:59;;;;;;;40.80;21.30;;;7.10;99.90;;;;;;5092484;28;20604;-64
2022/03/17 06:14:26;;;;;;;34.57;18.10;;;7.10;99.90;;;;;;5092388;28;20247;-65
2022/03/17 06:16:52;;;;;;;36.63;20.27;;;7.20;99.90;;;;;;5092927;28;20237;-65
2022/03/17 06:19:19;;;;;;;34.93;19.23;;;7.20;99.90;;;;;;5075437;28;20170;-63
2022/03/17 06:21:45;;;;;;;37.63;20.23;;;7.20;99.90;;;;;;5075792;28;20260;-64
2022/03/17 06:24:10;;;;;;;45.53;28.47;;;7.20;99.90;;;;;;5091703;28;20869;-65
2022/03/17 06:26:36;;;;;;;41.00;24.17;;;7.30;99.90;;;;;;5094950;28;20391;-64
2022/03/17 06:29:02;;;;;;;36.03;21.63;;;7.30;99.90;;;;;;5078344;28;20166;-64
2022/03/17 06:31:27;;;;;;;37.67;22.87;;;7.40;99.90;;;;;;5096235;28;20202;-65
2022/03/17 06:33:53;;;;;;;36.03;21.17;;;7.40;99.90;;;;;;5096279;28;20171;-64
2022/03/17 06:36:18;;;;;;;38.87;23.20;;;7.60;99.90;;;;;;5096177;28;20199;-64
2022/03/17 06:38:44;;;;;;;42.57;24.27;;;7.40;99.90;;;;;;5096558;28;20182;-64
2022/03/17 06:41:09;;;;;;;35.53;19.60;;;7.60;99.90;;;;;;5096168;28;20324;-64
2022/03/17 06:43:35;;;;;;;38.00;22.00;;;7.60;99.90;;;;;;5078720;28;20476;-63
2022/03/17 06:46:01;;;;;;;38.57;22.10;;;7.70;99.90;;;;;;5096319;28;20588;-64
2022/03/17 06:48:27;;;;;;;34.67;20.63;;;7.80;99.90;;;;;;5096364;28;20168;-66
2022/03/17 06:50:52;;;;;;;33.43;20.23;;;7.80;99.90;;;;;;5095930;28;20181;-64
2022/03/17 06:53:18;;;;;;;32.40;20.37;;;7.90;99.90;;;;;;5095646;28;20191;-63
2022/03/17 06:55:44;;;;;;;36.83;21.50;;;8.00;99.90;;;;;;5095649;28;20159;-65
2022/03/17 06:58:09;;;;;;;42.70;23.77;;;8.00;99.90;;;;;;5095835;28;20165;-64
2022/03/17 07:00:35;;;;;;;39.53;22.67;;;8.10;99.90;;;;;;5095907;28;20221;-64
2022/03/17 07:03:00;;;;;;;39.73;24.00;;;8.10;99.90;;;;;;5096086;28;20171;-63
2022/03/17 07:05:26;;;;;;;36.87;22.23;;;8.30;99.90;;;;;;5077678;28;20528;-64
2022/03/17 07:07:52;;;;;;;39.60;22.00;;;8.30;99.90;;;;;;5096134;28;20167;-65
2022/03/17 07:10:17;;;;;;;39.40;21.57;;;8.40;99.90;;;;;;5096052;28;20174;-64
2022/03/17 07:12:44;;;;;;;48.57;27.23;;;8.40;99.90;;;;;;5096073;28;20252;-65
2022/03/17 07:15:10;;;;;;;45.47;25.30;;;8.40;99.90;;;;;;5095658;28;20154;-64
2022/03/17 07:17:40;;;;;;;39.03;22.67;;;8.40;99.90;;;;;;5095375;28;20181;-65
2022/03/17 07:20:16;;;;;;;42.27;24.77;;;8.50;99.90;;;;;;5095722;28;20197;-65
2022/03/17 07:22:44;;;;;;;39.90;22.43;;;8.50;99.90;;;;;;5095276;28;20167;-65
2022/03/17 07:25:11;;;;;;;36.70;21.73;;;8.50;99.90;;;;;;5095090;28;20546;-64
2022/03/17 07:27:43;;;;;;;46.43;24.03;;;8.70;99.90;;;;;;5077591;28;20198;-66
2022/03/17 07:30:22;;;;;;;38.63;24.10;;;8.70;99.90;;;;;;5095087;28;20181;-65
2022/03/17 07:32:52;;;;;;;40.00;23.47;;;8.80;99.90;;;;;;5095521;28;20173;-64
2022/03/17 07:35:19;;;;;;;41.07;21.97;;;8.90;99.90;;;;;;5095199;28;20155;-63
2022/03/17 07:37:44;;;;;;;35.23;21.90;;;8.90;99.90;;;;;;5095087;28;20186;-64
2022/03/17 07:40:11;;;;;;;42.03;24.23;;;8.90;99.90;;;;;;5076322;28;20231;-64
2022/03/17 07:42:36;;;;;;;40.50;24.20;;;8.90;99.90;;;;;;5095181;28;20215;-64
2022/03/17 07:45:03;;;;;;;36.30;22.83;;;8.90;99.90;;;;;;5096575;28;20214;-64
2022/03/17 07:47:29;;;;;;;38.93;23.83;;;9.00;99.90;;;;;;5095772;28;20179;-65
2022/03/17 07:49:54;;;;;;;39.33;22.43;;;9.10;99.90;;;;;;5094466;28;20178;-64
2022/03/17 07:52:20;;;;;;;35.93;21.33;;;9.20;99.90;;;;;;5094756;28;20245;-64
2022/03/17 07:54:46;;;;;;;38.67;23.13;;;9.20;99.90;;;;;;5094601;28;20218;-63
2022/03/17 07:57:12;;;;;;;39.20;20.60;;;9.30;99.90;;;;;;5094850;28;20167;-74
2022/03/17 07:59:39;;;;;;;34.13;19.73;;;9.40;99.90;;;;;;5095107;28;20229;-63
2022/03/17 08:02:05;;;;;;;34.37;21.13;;;10.10;99.90;;;;;;5094489;28;20170;-63
2022/03/17 08:04:31;;;;;;;35.80;21.60;;;9.70;99.90;;;;;;5094446;28;20167;-63
2022/03/17 08:07:00;;;;;;;35.77;21.27;;;9.40;99.90;;;;;;5094436;28;20238;-65
2022/03/17 08:09:26;;;;;;;40.97;22.93;;;9.40;99.90;;;;;;5094482;28;20198;-64
2022/03/17 08:11:52;;;;;;;35.80;22.43;;;9.40;99.90;;;;;;5094769;28;20170;-63
2022/03/17 08:14:18;;;;;;;38.53;21.53;;;9.40;99.90;;;;;;5094170;28;20177;-64
2022/03/17 08:16:44;;;;;;;36.27;22.63;;;9.30;99.90;;;;;;5095256;28;20178;-65
2022/03/17 08:19:11;;;;;;;43.60;21.07;;;9.40;99.90;;;;;;5099923;28;20543;-64
2022/03/17 08:21:38;;;;;;;36.80;21.07;;;9.30;99.90;;;;;;5101149;28;20213;-65
2022/03/17 08:24:04;;;;;;;42.37;22.83;;;9.40;99.90;;;;;;5097420;28;20482;-63
2022/03/17 08:26:29;;;;;;;41.07;22.73;;;9.40;99.90;;;;;;5075828;28;20232;-65
2022/03/17 08:28:55;;;;;;;35.50;22.30;;;9.50;99.90;;;;;;5094368;28;20170;-65
2022/03/17 08:31:20;;;;;;;36.60;23.07;;;9.50;99.90;;;;;;5094481;28;20242;-63
2022/03/17 08:33:46;;;;;;;36.23;20.57;;;9.50;99.90;;;;;;5093936;28;20232;-64
2022/03/17 08:36:11;;;;;;;36.80;22.10;;;9.50;99.90;;;;;;5076096;28;20197;-63
2022/03/17 08:38:37;;;;;;;38.67;22.20;;;9.50;99.90;;;;;;5094947;28;20163;-65
2022/03/17 08:41:03;;;;;;;36.17;21.10;;;9.50;99.90;;;;;;5075328;28;20264;-64
2022/03/17 08:43:29;;;;;;;38.00;21.27;;;9.60;99.90;;;;;;5093705;28;20158;-64
2022/03/17 08:51:26;;;;;;;42.37;21.60;;;9.70;99.90;;;;;;5093568;28;20177;-63
2022/03/17 08:53:52;;;;;;;37.13;22.07;;;9.70;99.90;;;;;;5075654;28;20610;-65
2022/03/17 08:56:17;;;;;;;37.57;22.23;;;9.70;99.90;;;;;;5093733;28;20205;-64
2022/03/17 08:58:43;;;;;;;39.60;22.53;;;9.80;99.90;;;;;;5093422;28;20520;-63
2022/03/17 09:01:08;;;;;;;38.43;23.00;;;9.80;99.90;;;;;;5093189;28;20202;-64
2022/03/17 09:03:34;;;;;;;36.20;22.03;;;9.80;99.90;;;;;;5075740;28;20205;-64
2022/03/17 09:06:00;;;;;;;34.90;22.67;;;9.90;99.90;;;;;;5075469;28;20179;-65
2022/03/17 09:08:29;;;;;;;36.70;22.27;;;10.00;99.90;;;;;;5094961;28;20238;-63
2022/03/17 09:10:56;;;;;;;38.50;23.70;;;10.10;99.90;;;;;;5095979;28;20656;-64
2022/03/17 09:13:26;;;;;;;35.40;22.20;;;10.10;99.90;;;;;;5095012;28;20238;-64
2022/03/17 09:15:53;;;;;;;35.50;22.50;;;10.30;99.90;;;;;;5094380;28;20173;-65
2022/03/17 09:18:20;;;;;;;35.70;22.93;;;10.30;99.90;;;;;;5093792;28;20249;-63
2022/03/17 09:20:46;;;;;;;40.67;23.93;;;10.40;99.90;;;;;;5092928;28;20281;-64
2022/03/17 09:23:12;;;;;;;48.57;24.90;;;10.40;99.90;;;;;;5093921;28;20166;-64
2022/03/17 09:25:38;;;;;;;43.93;25.63;;;10.40;99.90;;;;;;5093890;28;20180;-64
2022/03/17 09:28:04;;;;;;;41.13;22.17;;;10.60;99.90;;;;;;5093713;28;20246;-63
2022/03/17 09:30:30;;;;;;;41.17;24.07;;;10.60;99.90;;;;;;5093775;28;20174;-63
2022/03/17 09:32:58;;;;;;;41.60;21.80;;;10.70;99.90;;;;;;5093537;28;20168;-68
2022/03/17 09:35:25;;;;;;;56.60;32.87;;;10.80;99.90;;;;;;5093631;28;20475;-66
2022/03/17 09:37:51;;;;;;;34.67;21.27;;;10.80;99.90;;;;;;5093296;28;20183;-63
2022/03/17 09:40:17;;;;;;;40.67;22.33;;;10.90;99.90;;;;;;5092887;28;20645;-64
2022/03/17 09:42:43;;;;;;;33.70;21.67;;;10.90;99.90;;;;;;5092794;28;20159;-63
2022/03/17 09:45:10;;;;;;;38.53;22.40;;;11.00;99.90;;;;;;5094123;28;20163;-64
2022/03/17 09:47:38;;;;;;;39.27;24.07;;;11.00;99.90;;;;;;5097554;28;20155;-65
2022/03/17 09:50:08;;;;;;;38.87;23.23;;;11.00;99.90;;;;;;5102024;28;20160;-63
2022/03/17 09:52:38;;;;;;;34.23;23.50;;;11.10;99.90;;;;;;5101681;28;20254;-64
2022/03/17 09:55:04;;;;;;;37.77;22.43;;;11.20;99.90;;;;;;5098242;28;20162;-64
2022/03/17 09:57:31;;;;;;;42.33;25.63;;;11.30;99.90;;;;;;5099174;28;20293;-63
2022/03/17 09:59:58;;;;;;;49.17;25.47;;;11.40;99.90;;;;;;5101795;28;20301;-63
2022/03/17 10:02:24;;;;;;;38.63;23.20;;;11.40;99.90;;;;;;5098692;28;20158;-63
2022/03/17 10:04:51;;;;;;;38.50;21.97;;;11.40;99.90;;;;;;5092595;28;20195;-63
2022/03/17 10:07:19;;;;;;;34.40;21.90;;;11.30;99.90;;;;;;5097312;28;20235;-63
2022/03/17 10:09:45;;;;;;;32.00;20.50;;;11.30;99.90;;;;;;5098047;28;20182;-63
2022/03/17 10:12:12;;;;;;;35.47;22.97;;;11.30;99.90;;;;;;5097705;28;20547;-65
2022/03/17 10:14:42;;;;;;;33.53;21.07;;;11.30;99.90;;;;;;5098805;28;20174;-63
2022/03/17 10:17:34;;;;;;;34.70;21.50;;;11.40;99.90;;;;;;5098671;28;20176;-62
2022/03/17 10:20:15;;;;;;;33.33;20.53;;;11.50;99.90;;;;;;5097050;28;20221;-63
2022/03/17 10:22:52;;;;;;;31.80;19.23;;;11.40;99.90;;;;;;5097997;28;20174;-63
2022/03/17 10:25:21;;;;;;;36.23;21.40;;;11.50;99.90;;;;;;5097150;28;20165;-63
2022/03/17 10:27:49;;;;;;;39.30;19.93;;;11.60;99.90;;;;;;5097784;28;20221;-63
2022/03/17 10:30:20;;;;;;;38.53;21.80;;;11.60;99.90;;;;;;5097748;28;20155;-64
2022/03/17 10:32:56;;;;;;;35.17;20.97;;;11.60;99.90;;;;;;5097367;28;20242;-64
2022/03/17 10:35:36;;;;;;;34.83;20.07;;;11.60;99.90;;;;;;5079696;28;20187;-65
2022/03/17 10:38:14;;;;;;;31.40;20.30;;;11.60;99.90;;;;;;5098493;28;20602;-63
2022/03/17 10:40:41;;;;;;;39.63;19.93;;;11.90;99.90;;;;;;5067388;28;20674;-63
2022/03/17 10:43:34;;;;;;;31.87;19.20;;;11.90;99.90;;;;;;5075482;28;20159;-65
2022/03/17 10:46:11;;;;;;;30.23;18.70;;;11.90;99.90;;;;;;5073000;28;20622;-64
2022/03/17 10:49:05;;;;;;;35.63;20.53;;;12.00;99.60;;;;;;5075915;28;20191;-64
2022/03/17 10:51:38;;;;;;;33.20;19.43;;;12.00;99.70;;;;;;5052033;28;20213;-65
2022/03/17 10:54:20;;;;;;;33.27;20.70;;;12.00;98.60;;;;;;5076027;28;20195;-63
2022/03/17 10:57:02;;;;;;;30.83;19.60;;;12.00;98.80;;;;;;5057620;28;20176;-63
2022/03/17 10:59:43;;;;;;;33.23;20.10;;;12.00;98.00;;;;;;5075687;28;20221;-63
2022/03/17 11:02:10;;;;;;;26.67;18.07;;;12.00;97.70;;;;;;5076211;28;20167;-64
2022/03/17 11:04:37;;;;;;;31.73;19.60;;;11.90;97.40;;;;;;5075913;28;20160;-63
2022/03/17 11:07:06;;;;;;;32.20;19.47;;;12.00;97.70;;;;;;5058357;28;20273;-63
2022/03/17 11:09:36;;;;;;;27.10;16.67;;;12.10;96.70;;;;;;5075871;28;20166;-64
2022/03/17 11:12:02;;;;;;;30.37;18.60;;;12.30;96.40;;;;;;5057622;28;20185;-65
2022/03/17 11:14:29;;;;;;;30.07;19.07;;;12.20;95.70;;;;;;5075217;28;20213;-65
2022/03/17 11:16:58;;;;;;;27.83;17.30;;;12.30;95.50;;;;;;5075238;28;20156;-64
2022/03/17 11:19:24;;;;;;;27.93;17.60;;;12.30;94.70;;;;;;5057970;28;20210;-64
2022/03/17 11:22:08;;;;;;;30.10;17.67;;;12.30;94.10;;;;;;5075232;28;20198;-64
2022/03/17 11:24:34;;;;;;;28.03;18.50;;;12.20;94.00;;;;;;5075169;28;20159;-64
2022/03/17 11:27:09;;;;;;;30.83;18.43;;;12.20;94.40;;;;;;5057731;28;20202;-64
2022/03/17 11:29:45;;;;;;;29.87;19.23;;;12.30;93.70;;;;;;5075383;28;20591;-64
2022/03/17 11:32:31;;;;;;;31.77;18.77;;;12.40;93.40;;;;;;5075861;28;20163;-65
2022/03/17 11:35:09;;;;;;;28.03;17.23;;;12.50;93.00;;;;;;5075179;28;20182;-64
2022/03/17 11:37:35;;;;;;;23.93;16.03;;;12.50;92.20;;;;;;5075193;28;20508;-63
2022/03/17 11:40:03;;;;;;;27.20;16.13;;;12.70;91.70;;;;;;5081098;28;20230;-66
2022/03/17 11:42:40;;;;;;;23.33;15.03;;;12.80;90.40;;;;;;5096306;28;20178;-67
2022/03/17 11:45:15;;;;;;;20.47;14.57;;;13.00;90.70;;;;;;5097326;28;20173;-65
2022/03/17 11:47:59;;;;;;;22.13;15.20;;;13.00;87.40;;;;;;5096569;28;20170;-64
2022/03/17 11:50:36;;;;;;;28.20;16.40;;;13.10;87.40;;;;;;5096093;28;20171;-63
2022/03/17 11:53:12;;;;;;;25.37;15.53;;;12.80;84.50;;;;;;5097288;28;20178;-64
2022/03/17 11:55:41;;;;;;;25.47;14.80;;;13.10;84.60;;;;;;5098874;28;20201;-66
2022/03/17 11:58:16;;;;;;;24.93;14.30;;;13.10;83.70;;;;;;5101441;28;20167;-70
2022/03/17 12:01:03;;;;;;;19.73;14.43;;;13.10;80.90;;;;;;5095952;28;20205;-65
2022/03/17 12:03:31;;;;;;;23.37;14.83;;;13.40;80.40;;;;;;5101738;28;20163;-68
2022/03/17 12:06:19;;;;;;;26.77;17.20;;;13.30;79.60;;;;;;5097507;28;20397;-64
2022/03/17 12:08:59;;;;;;;21.40;15.37;;;13.50;80.10;;;;;;5094510;28;20559;-65
2022/03/17 12:11:27;;;;;;;22.53;13.60;;;13.60;78.70;;;;;;5094665;28;20539;-63
2022/03/17 12:14:25;;;;;;;22.70;14.33;;;13.60;77.40;;;;;;5093816;28;20281;-65
2022/03/17 12:16:52;;;;;;;26.77;13.37;;;13.60;76.20;;;;;;5082105;28;20227;-63
2022/03/17 12:19:36;;;;;;;27.83;14.60;;;13.70;73.90;;;;;;5093808;28;20163;-64
2022/03/17 12:22:06;;;;;;;18.73;13.40;;;13.80;74.00;;;;;;5075588;28;20213;-62
2022/03/17 12:24:53;;;;;;;23.43;14.47;;;14.00;72.20;;;;;;5093569;28;20191;-64
2022/03/17 12:27:30;;;;;;;20.20;13.70;;;13.90;72.60;;;;;;5093844;28;20217;-64
2022/03/17 12:29:57;;;;;;;26.23;14.10;;;14.00;72.00;;;;;;5093944;28;20245;-64
2022/03/17 12:32:24;;;;;;;26.03;14.33;;;14.00;71.20;;;;;;5093854;28;20151;-63
2022/03/17 12:34:52;;;;;;;21.40;13.43;;;13.90;71.20;;;;;;5093863;28;20193;-63
2022/03/17 12:37:19;;;;;;;20.50;14.23;;;14.20;70.90;;;;;;5094140;28;20179;-65
2022/03/17 12:39:52;;;;;;;23.47;13.27;;;14.00;70.60;;;;;;5093171;28;20275;-64
2022/03/17 12:42:25;;;;;;;19.60;13.00;;;13.90;68.70;;;;;;5093943;28;20167;-65
2022/03/17 12:44:58;;;;;;;22.33;13.73;;;14.20;68.30;;;;;;5093738;28;20166;-64
2022/03/17 12:47:26;;;;;;;19.63;12.90;;;14.00;67.50;;;;;;5093699;28;20261;-65
2022/03/17 12:49:54;;;;;;;19.87;12.47;;;14.20;66.60;;;;;;5093787;28;20609;-65
2022/03/17 12:52:25;;;;;;;15.37;11.33;;;14.20;66.50;;;;;;5093885;28;20204;-64
2022/03/17 12:54:53;;;;;;;19.30;12.20;;;14.30;65.70;;;;;;5093519;28;20173;-65